Time;durP1;ratioP1;P1;durP2;ratioP2;P2;SDS_P1;SDS_P2;PMS_P1;PMS_P2;Temp;Humidity;BMP_temperature;BMP_pressure;BME280_temperature;BME280_humidity;BME280_pressure;Samples;Min_cycle;Max_cycle;Signal;HPM_P1;HPM_P2
2023/03/01 00:01:35;;;;;;;6.40;4.30;;;;;;;-1.19;68.14;102954.34;5097167;28;20528;-85
2023/03/01 00:04:01;;;;;;;10.23;4.10;;;;;;;-1.18;67.03;102948.91;5115542;28;20034;-86
2023/03/01 00:06:27;;;;;;;13.00;4.73;;;;;;;-1.21;67.67;102948.22;5097424;28;20391;-86
2023/03/01 00:08:53;;;;;;;8.77;4.70;;;;;;;-1.19;66.91;102954.34;5080181;28;20043;-86
2023/03/01 00:11:22;;;;;;;9.83;4.60;;;;;;;-1.26;66.99;102946.66;5097318;28;20020;-86
2023/03/01 00:13:50;;;;;;;7.05;4.53;;;;;;;-1.26;66.90;102954.66;5096665;28;20038;-86
2023/03/01 00:16:18;;;;;;;9.27;5.05;;;;;;;-1.30;67.72;102950.47;5096536;28;20081;-86
2023/03/01 00:18:45;;;;;;;7.78;4.53;;;;;;;-1.30;67.64;102949.59;5115218;28;20111;-86
2023/03/01 00:21:11;;;;;;;11.05;4.88;;;;;;;-1.33;67.93;102958.63;5114820;28;20016;-85
2023/03/01 00:23:37;;;;;;;7.70;4.75;;;;;;;-1.38;68.32;102949.19;5097055;28;20099;-86
2023/03/01 00:26:07;;;;;;;7.95;4.93;;;;;;;-1.41;68.75;102944.88;5096972;28;20039;-85
2023/03/01 00:28:33;;;;;;;8.23;4.63;;;;;;;-1.41;68.00;102947.53;5114666;28;20472;-86
2023/03/01 00:31:10;;;;;;;10.23;4.80;;;;;;;-1.47;69.05;102937.22;5096395;28;20088;-86
2023/03/01 00:33:36;;;;;;;7.90;4.63;;;;;;;-1.49;68.95;102947.97;5115234;28;20030;-85
2023/03/01 00:36:02;;;;;;;8.23;4.87;;;;;;;-1.49;69.10;102952.41;5095866;28;20024;-86
2023/03/01 00:38:28;;;;;;;8.05;4.70;;;;;;;-1.50;69.22;102948.06;5079760;28;20038;-85
2023/03/01 00:40:53;;;;;;;9.18;4.70;;;;;;;-1.51;68.98;102949.84;5096426;28;20356;-86
2023/03/01 00:43:19;;;;;;;8.15;4.55;;;;;;;-1.53;69.64;102948.22;5079758;28;20031;-85
2023/03/01 00:45:47;;;;;;;9.27;4.47;;;;;;;-1.54;69.17;102951.81;5096685;28;20130;-86
2023/03/01 00:48:13;;;;;;;8.68;5.03;;;;;;;-1.62;69.58;102949.59;5078682;28;20040;-85
2023/03/01 00:50:41;;;;;;;6.73;4.57;;;;;;;-1.66;70.02;102946.22;5096477;28;20034;-86
2023/03/01 00:53:06;;;;;;;9.85;5.22;;;;;;;-1.67;70.19;102941.84;5096295;28;20024;-86
2023/03/01 00:55:32;;;;;;;7.33;4.90;;;;;;;-1.68;70.06;102928.59;5096192;28;20088;-85
2023/03/01 00:57:57;;;;;;;8.07;4.75;;;;;;;-1.70;69.81;102933.16;5079055;28;20122;-86
2023/03/01 01:00:22;;;;;;;9.47;4.90;;;;;;;-1.68;70.37;102931.25;5096317;28;20076;-86
2023/03/01 01:02:48;;;;;;;8.67;4.70;;;;;;;-1.73;70.84;102923.53;5096175;28;20035;-86
2023/03/01 01:05:14;;;;;;;11.60;4.97;;;;;;;-1.71;70.21;102926.09;5113993;28;20460;-86
2023/03/01 01:07:39;;;;;;;8.40;4.67;;;;;;;-1.77;70.57;102919.34;5079378;28;20477;-86
2023/03/01 01:10:06;;;;;;;10.33;5.10;;;;;;;-1.81;71.74;102912.47;5096883;28;20024;-86
2023/03/01 01:12:32;;;;;;;8.70;5.18;;;;;;;-1.83;71.74;102922.31;5096312;28;20277;-86
2023/03/01 01:14:57;;;;;;;9.20;5.38;;;;;;;-1.84;71.53;102924.13;5096330;28;20100;-86
2023/03/01 01:17:25;;;;;;;8.10;4.70;;;;;;;-1.91;71.79;102916.56;5095580;28;20534;-85
2023/03/01 01:19:51;;;;;;;9.23;4.55;;;;;;;-1.92;72.17;102914.84;5096011;28;20095;-85
2023/03/01 01:22:19;;;;;;;8.13;4.60;;;;;;;-1.94;71.68;102913.09;5095892;28;20027;-86
2023/03/01 01:24:45;;;;;;;9.15;4.72;;;;;;;-1.99;71.57;102911.66;5096375;28;20031;-86
2023/03/01 01:27:10;;;;;;;10.43;4.80;;;;;;;-1.98;72.38;102908.03;5114093;28;20116;-85
2023/03/01 01:29:36;;;;;;;8.50;4.97;;;;;;;-2.01;72.50;102894.91;5113767;28;20043;-86
2023/03/01 01:32:01;;;;;;;8.30;5.25;;;;;;;-2.05;72.49;102896.88;5095052;28;20050;-85
2023/03/01 01:34:27;;;;;;;8.20;5.30;;;;;;;-2.08;72.70;102891.72;5114019;28;20024;-85
2023/03/01 01:36:53;;;;;;;7.85;5.05;;;;;;;-2.10;73.43;102885.63;5095725;28;20027;-86
2023/03/01 01:39:20;;;;;;;8.60;4.90;;;;;;;-2.13;73.35;102880.47;5095832;28;20027;-86
2023/03/01 01:41:46;;;;;;;9.63;5.40;;;;;;;-2.16;73.71;102875.31;5095400;28;20471;-86
2023/03/01 01:44:26;;;;;;;7.50;5.00;;;;;;;-2.16;74.18;102884.13;5095804;28;20034;-86
2023/03/01 01:47:20;;;;;;;7.60;4.85;;;;;;;-2.15;73.53;102879.69;5096960;28;20023;-86
2023/03/01 01:50:02;;;;;;;8.70;4.70;;;;;;;-2.16;73.25;102870.00;5099970;28;20031;-86
2023/03/01 01:52:34;;;;;;;11.47;5.27;;;;;;;-2.24;73.89;102875.72;5117936;28;20487;-86
2023/03/01 01:55:04;;;;;;;8.40;5.03;;;;;;;-2.28;73.03;102874.16;5099924;28;20026;-86
2023/03/01 01:57:58;;;;;;;8.30;5.55;;;;;;;-2.27;72.39;102881.22;5100059;28;20023;-86
2023/03/01 02:00:29;;;;;;;7.93;4.40;;;;;;;-2.34;73.88;102872.69;5089403;28;20046;-86
2023/03/01 02:03:01;;;;;;;9.88;4.78;;;;;;;-2.33;74.52;102869.09;5099931;28;20027;-86
2023/03/01 02:05:52;;;;;;;8.07;4.50;;;;;;;-2.38;74.41;102859.63;5099924;28;20111;-87
2023/03/01 02:08:21;;;;;;;7.22;4.55;;;;;;;-2.37;74.66;102861.38;5099674;28;20035;-86
2023/03/01 02:10:49;;;;;;;10.25;5.40;;;;;;;-2.38;75.28;102859.63;5099455;28;20467;-87
2023/03/01 02:13:14;;;;;;;8.70;5.05;;;;;;;-2.36;74.97;102861.28;5099361;28;20030;-87
2023/03/01 02:15:52;;;;;;;8.23;4.80;;;;;;;-2.41;75.63;102852.69;5098720;28;20118;-86
2023/03/01 02:18:20;;;;;;;8.45;4.53;;;;;;;-2.46;75.34;102846.75;5117410;28;20345;-86
2023/03/01 02:20:48;;;;;;;8.35;4.80;;;;;;;-2.43;75.81;102861.69;5099163;28;20031;-87
2023/03/01 02:23:33;;;;;;;10.13;4.72;;;;;;;-2.45;74.94;102851.16;5099552;28;20039;-87
2023/03/01 02:26:30;;;;;;;9.32;4.63;;;;;;;-2.46;75.30;102852.06;5117538;28;20039;-87
2023/03/01 02:28:56;;;;;;;9.77;4.82;;;;;;;-2.49;75.79;102839.78;5118063;28;20049;-86
2023/03/01 02:34:08;;;;;;;9.65;4.65;;;;;;;-2.58;75.84;102842.06;5117330;28;20046;-87
2023/03/01 02:36:40;;;;;;;8.10;4.78;;;;;;;-2.57;75.73;102854.44;5098839;28;20031;-86
2023/03/01 02:39:14;;;;;;;8.23;4.75;;;;;;;-2.60;76.31;102851.94;5098902;28;20100;-86
2023/03/01 02:41:42;;;;;;;10.37;4.67;;;;;;;-2.60;76.51;102851.94;5117205;28;20024;-86
2023/03/01 02:44:11;;;;;;;9.30;5.07;;;;;;;-2.60;76.53;102841.31;5117128;28;20081;-87
2023/03/01 02:46:43;;;;;;;8.65;4.70;;;;;;;-2.63;76.54;102849.44;5098759;28;20023;-86
2023/03/01 02:49:31;;;;;;;11.23;5.20;;;;;;;-2.67;75.71;102854.91;5116796;28;20028;-87
2023/03/01 02:52:14;;;;;;;10.75;4.78;;;;;;;-2.61;76.26;102858.19;5098396;28;20022;-86
2023/03/01 02:54:57;;;;;;;7.87;4.80;;;;;;;-2.67;76.09;102860.22;5099284;28;20115;-87
2023/03/01 02:57:24;;;;;;;10.07;4.78;;;;;;;-2.68;76.42;102858.50;5098526;28;20034;-86
2023/03/01 02:59:52;;;;;;;7.30;4.75;;;;;;;-2.72;76.90;102856.09;5097720;28;20031;-86
2023/03/01 03:02:36;;;;;;;8.65;4.30;;;;;;;-2.69;77.66;102855.94;5098452;28;20043;-87
2023/03/01 03:05:08;;;;;;;10.65;5.07;;;;;;;-2.68;77.97;102852.34;5099199;28;20054;-87
2023/03/01 03:07:34;;;;;;;8.37;4.43;;;;;;;-2.69;77.41;102846.19;5116499;28;20027;-87
2023/03/01 03:10:01;;;;;;;8.07;4.35;;;;;;;-2.66;78.03;102842.47;5098104;28;20401;-87
2023/03/01 03:12:27;;;;;;;6.90;4.82;;;;;;;-2.70;78.12;102835.59;5098632;28;20042;-87
2023/03/01 03:14:52;;;;;;;12.05;4.45;;;;;;;-2.67;77.51;102844.28;5098210;28;20027;-87
2023/03/01 03:17:20;;;;;;;9.33;4.63;;;;;;;-2.70;77.65;102852.41;5096967;28;20114;-87
2023/03/01 03:19:46;;;;;;;7.55;4.72;;;;;;;-2.74;77.73;102850.84;5097911;28;20032;-87
2023/03/01 03:22:12;;;;;;;7.93;4.53;;;;;;;-2.73;78.18;102851.69;5081138;28;20046;-87
2023/03/01 03:24:40;;;;;;;9.55;4.80;;;;;;;-2.75;78.63;102846.47;5098045;28;20035;-88
2023/03/01 03:27:06;;;;;;;8.23;4.43;;;;;;;-2.76;78.60;102846.56;5098587;28;20031;-87
2023/03/01 03:29:32;;;;;;;10.20;4.70;;;;;;;-2.75;78.05;102843.81;5097759;28;20042;-87
2023/03/01 03:31:57;;;;;;;9.00;4.72;;;;;;;-2.76;77.64;102854.53;5116088;28;20040;-87
2023/03/01 03:34:23;;;;;;;8.57;4.90;;;;;;;-2.78;78.13;102854.59;5097927;28;20079;-87
2023/03/01 03:36:56;;;;;;;9.40;4.97;;;;;;;-2.77;78.12;102847.50;5097924;28;20023;-87
2023/03/01 03:39:22;;;;;;;9.95;4.68;;;;;;;-2.82;78.52;102843.28;5099201;28;20031;-88
2023/03/01 03:41:48;;;;;;;9.68;4.75;;;;;;;-2.84;78.53;102841.63;5097987;28;20078;-88
2023/03/01 03:44:13;;;;;;;7.23;4.13;;;;;;;-2.85;79.01;102847.88;5097912;28;20085;-88
2023/03/01 03:46:39;;;;;;;9.03;4.50;;;;;;;-2.92;78.91;102841.16;5097361;28;20031;-87
2023/03/01 03:49:04;;;;;;;8.43;4.80;;;;;;;-2.91;78.26;102843.75;5098615;28;20032;-86
2023/03/01 03:51:32;;;;;;;9.20;4.50;;;;;;;-2.97;79.19;102845.84;5081162;28;20043;-86
2023/03/01 03:53:57;;;;;;;8.43;4.67;;;;;;;-2.98;78.71;102844.13;5115990;28;20032;-87
2023/03/01 03:56:25;;;;;;;7.20;4.15;;;;;;;-3.00;79.11;102842.44;5080919;28;20024;-87
2023/03/01 03:58:51;;;;;;;8.70;4.20;;;;;;;-3.02;79.91;102836.31;5080984;28;20027;-86
2023/03/01 04:01:17;;;;;;;8.63;4.38;;;;;;;-3.01;79.23;102845.16;5115353;28;20572;-87
2023/03/01 04:03:54;;;;;;;9.45;4.15;;;;;;;-3.05;78.62;102828.50;5097379;28;20031;-87
2023/03/01 04:06:20;;;;;;;8.40;4.33;;;;;;;-3.06;79.40;102826.78;5098312;28;20355;-87
2023/03/01 04:08:45;;;;;;;10.35;4.70;;;;;;;-3.07;79.59;102833.06;5097478;28;20740;-87
2023/03/01 04:11:26;;;;;;;6.95;4.15;;;;;;;-3.10;79.91;102821.69;5114519;28;20055;-87
2023/03/01 04:13:54;;;;;;;8.80;4.10;;;;;;;-3.10;79.51;102817.28;5097560;28;20039;-87
2023/03/01 04:16:20;;;;;;;9.50;4.15;;;;;;;-3.14;80.09;102818.34;5115143;28;20156;-87
2023/03/01 04:18:45;;;;;;;5.70;3.90;;;;;;;-3.16;79.75;102809.59;5079912;28;20126;-87
2023/03/01 04:21:11;;;;;;;8.55;4.05;;;;;;;-3.17;80.79;102813.22;5096943;28;20020;-87
2023/03/01 04:23:38;;;;;;;10.52;4.38;;;;;;;-3.16;81.00;102812.25;5096624;28;20027;-87
2023/03/01 04:26:04;;;;;;;6.60;4.10;;;;;;;-3.19;80.92;102810.63;5096972;28;20472;-86
2023/03/01 04:28:34;;;;;;;9.70;4.50;;;;;;;-3.16;80.57;102814.91;5096645;28;20039;-86
2023/03/01 04:31:12;;;;;;;8.90;4.40;;;;;;;-3.19;80.78;102807.97;5115035;28;20032;-87
2023/03/01 04:33:42;;;;;;;7.72;3.88;;;;;;;-3.18;80.66;102807.00;5096985;28;20024;-87
2023/03/01 04:36:14;;;;;;;8.65;4.13;;;;;;;-3.22;81.18;102807.25;5115099;28;20030;-87
2023/03/01 04:38:40;;;;;;;7.57;4.18;;;;;;;-3.22;81.29;102812.56;5097074;28;20028;-87
2023/03/01 04:41:08;;;;;;;8.50;4.10;;;;;;;-3.25;81.48;102802.09;5096323;28;20035;-87
2023/03/01 04:43:34;;;;;;;9.43;4.03;;;;;;;-3.27;81.74;102806.63;5097415;28;20085;-87
2023/03/01 04:46:04;;;;;;;8.80;3.88;;;;;;;-3.27;81.46;102796.88;5096703;28;20031;-87
2023/03/01 04:48:32;;;;;;;7.75;4.28;;;;;;;-3.27;82.01;102798.66;5078993;28;20027;-87
2023/03/01 04:50:59;;;;;;;11.45;4.15;;;;;;;-3.27;82.02;102794.22;5096470;28;20100;-87
2023/03/01 04:53:26;;;;;;;6.60;4.25;;;;;;;-3.25;82.77;102796.78;5114480;28;20053;-87
2023/03/01 04:55:58;;;;;;;7.45;4.03;;;;;;;-3.25;82.42;102795.00;5096769;28;20424;-87
2023/03/01 04:58:28;;;;;;;7.53;4.38;;;;;;;-3.29;82.31;102782.81;5096491;28;20035;-87
2023/03/01 05:00:54;;;;;;;10.23;4.43;;;;;;;-3.33;82.86;102783.06;5096647;28;20110;-87
2023/03/01 05:03:20;;;;;;;9.25;4.45;;;;;;;-3.33;82.04;102783.91;5096490;28;20527;-87
2023/03/01 05:05:48;;;;;;;9.40;4.60;;;;;;;-3.33;82.59;102794.53;5096497;28;20420;-87
2023/03/01 05:08:34;;;;;;;9.38;4.40;;;;;;;-3.35;82.09;102783.13;5114479;28;20024;-86
2023/03/01 05:10:59;;;;;;;7.55;4.40;;;;;;;-3.38;82.27;102788.56;5097055;28;20486;-86
2023/03/01 05:13:26;;;;;;;8.23;4.35;;;;;;;-3.37;82.64;102796.47;5095949;28;20031;-87
2023/03/01 05:16:02;;;;;;;7.90;3.97;;;;;;;-3.40;82.28;102791.31;5096079;28;20061;-87
2023/03/01 05:18:30;;;;;;;7.20;4.55;;;;;;;-3.42;82.38;102787.03;5096257;28;20393;-87
2023/03/01 05:21:06;;;;;;;9.77;4.85;;;;;;;-3.44;83.02;102786.22;5114114;28;20066;-87
2023/03/01 05:23:40;;;;;;;10.23;4.00;;;;;;;-3.49;82.50;102778.50;5095852;28;20122;-86
2023/03/01 05:26:06;;;;;;;8.73;4.00;;;;;;;-3.49;82.87;102778.50;5096030;28;20055;-86
2023/03/01 05:28:37;;;;;;;10.77;4.20;;;;;;;-3.53;83.45;102769.84;5095888;28;20031;-87
2023/03/01 05:31:10;;;;;;;7.00;4.57;;;;;;;-3.56;83.43;102769.13;5079261;28;20043;-87
2023/03/01 05:33:38;;;;;;;6.68;3.90;;;;;;;-3.59;83.55;102769.28;5079105;28;20093;-86
2023/03/01 05:36:14;;;;;;;7.80;4.47;;;;;;;-3.60;83.34;102764.88;5113810;28;20039;-87
2023/03/01 05:38:39;;;;;;;9.02;4.45;;;;;;;-3.64;83.40;102760.69;5096432;28;20024;-86
2023/03/01 05:41:07;;;;;;;9.10;4.80;;;;;;;-3.67;84.26;102759.03;5096083;28;20050;-86
2023/03/01 05:43:33;;;;;;;7.45;4.55;;;;;;;-3.69;83.70;102750.31;5113972;28;20031;-87
2023/03/01 05:45:59;;;;;;;12.65;4.43;;;;;;;-3.71;84.77;102752.16;5113968;28;20023;-86
2023/03/01 05:48:25;;;;;;;8.93;4.38;;;;;;;-3.76;84.52;102744.44;5113366;28;20490;-86
2023/03/01 05:50:51;;;;;;;10.07;4.97;;;;;;;-3.77;84.44;102753.31;5113658;28;20097;-86
2023/03/01 05:53:20;;;;;;;7.93;4.38;;;;;;;-3.76;84.58;102756.84;5113705;28;20281;-86
2023/03/01 05:55:49;;;;;;;10.18;4.53;;;;;;;-3.79;84.19;102749.88;5095493;28;20032;-86
2023/03/01 05:58:17;;;;;;;14.15;5.20;;;;;;;-3.84;85.45;102751.03;5113347;28;20034;-86
2023/03/01 06:00:44;;;;;;;9.55;4.78;;;;;;;-3.80;85.69;102760.56;5095278;28;20479;-87
2023/03/01 06:03:12;;;;;;;10.33;5.33;;;;;;;-3.82;85.41;102751.81;5113908;28;20464;-86
2023/03/01 06:05:39;;;;;;;9.07;4.95;;;;;;;-3.85;85.18;102757.28;5095634;28;20398;-86
2023/03/01 06:08:05;;;;;;;9.75;5.45;;;;;;;-3.84;85.62;102751.03;5095529;28;20024;-83
2023/03/01 06:10:30;;;;;;;9.07;4.65;;;;;;;-3.83;85.66;102756.28;5113484;28;20026;-84
2023/03/01 06:12:56;;;;;;;10.40;5.33;;;;;;;-3.84;85.79;102756.34;5095477;28;20040;-83
2023/03/01 06:15:25;;;;;;;9.40;4.90;;;;;;;-3.85;86.20;102758.16;5095250;28;20086;-83
2023/03/01 06:17:51;;;;;;;9.75;5.28;;;;;;;-3.90;86.18;102753.06;5104593;28;20079;-84
2023/03/01 06:20:22;;;;;;;12.00;5.28;;;;;;;-3.89;86.99;102752.13;5114928;28;20027;-83
2023/03/01 06:22:49;;;;;;;12.00;5.20;;;;;;;-3.91;87.17;102747.84;5133157;28;20102;-83
2023/03/01 06:25:18;;;;;;;10.80;5.40;;;;;;;-3.93;86.53;102747.88;5133715;28;20276;-84
2023/03/01 06:27:44;;;;;;;7.78;4.90;;;;;;;-3.92;86.33;102754.06;5133720;28;20344;-83
2023/03/01 06:30:14;;;;;;;9.77;5.03;;;;;;;-3.94;86.77;102751.50;5133894;28;20030;-83
2023/03/01 06:32:41;;;;;;;11.68;5.07;;;;;;;-3.94;86.30;102755.91;5115816;27;20539;-84
2023/03/01 06:35:07;;;;;;;10.87;4.87;;;;;;;-3.90;86.78;102761.03;5102091;27;20035;-83
2023/03/01 06:37:33;;;;;;;11.20;5.50;;;;;;;-3.84;86.67;102761.66;5110018;27;20281;-83
2023/03/01 06:39:58;;;;;;;10.48;5.32;;;;;;;-3.83;87.04;102769.53;5110424;27;20031;-83
2023/03/01 06:42:24;;;;;;;9.73;5.27;;;;;;;-3.84;87.10;102765.16;5112775;28;20383;-84
2023/03/01 06:44:49;;;;;;;9.70;5.47;;;;;;;-3.78;86.76;102764.88;5117019;27;20032;-84
2023/03/01 06:47:15;;;;;;;12.97;5.40;;;;;;;-3.75;86.03;102767.38;5102255;27;20054;-86
2023/03/01 06:49:41;;;;;;;9.05;4.97;;;;;;;-3.75;86.35;102762.06;5103315;27;20076;-84
2023/03/01 06:52:06;;;;;;;12.20;6.03;;;;;;;-3.68;86.58;102764.44;5115819;27;20038;-84
2023/03/01 06:54:35;;;;;;;11.23;5.40;;;;;;;-3.68;86.07;102762.63;5108507;27;20035;-83
2023/03/01 06:57:00;;;;;;;9.40;4.95;;;;;;;-3.63;87.31;102757.09;5095202;27;20313;-84
2023/03/01 06:59:25;;;;;;;12.35;5.78;;;;;;;-3.57;86.45;102756.81;5082390;28;20059;-84
2023/03/01 07:01:51;;;;;;;10.30;5.10;;;;;;;-3.55;86.16;102757.56;5098549;27;20023;-84
2023/03/01 07:04:16;;;;;;;10.40;5.27;;;;;;;-3.49;86.11;102759.91;5125906;27;20036;-84
2023/03/01 07:06:42;;;;;;;9.63;5.50;;;;;;;-3.42;86.29;102753.38;5071918;28;20685;-83
2023/03/01 07:09:07;;;;;;;8.33;5.00;;;;;;;-3.37;86.08;102753.13;5122348;27;20137;-84
2023/03/01 07:11:33;;;;;;;8.67;5.07;;;;;;;-3.31;85.70;102749.31;5135490;27;20039;-83
2023/03/01 07:13:59;;;;;;;11.18;5.80;;;;;;;-3.25;84.66;102744.56;5124412;27;20502;-83
2023/03/01 07:16:25;;;;;;;11.07;5.77;;;;;;;-3.18;85.45;102747.75;5116500;27;20506;-83
2023/03/01 07:18:50;;;;;;;9.40;5.25;;;;;;;-3.08;85.74;102756.13;5117719;27;20307;-83
2023/03/01 07:21:16;;;;;;;9.73;5.00;;;;;;;-3.03;85.05;102759.38;5115483;27;20030;-84
2023/03/01 07:23:42;;;;;;;10.30;5.65;;;;;;;-2.97;84.27;102766.16;5112584;27;20421;-84
2023/03/01 07:26:07;;;;;;;10.88;5.25;;;;;;;-2.92;83.71;102766.78;5092770;27;20032;-85
2023/03/01 07:28:38;;;;;;;14.20;6.30;;;;;;;-2.85;84.81;102770.84;5095260;27;20476;-84
2023/03/01 07:31:04;;;;;;;10.85;5.65;;;;;;;-2.78;85.47;102768.72;5100457;28;20032;-84
2023/03/01 07:33:30;;;;;;;14.43;5.80;;;;;;;-2.69;84.33;102777.09;5115784;28;20026;-83
2023/03/01 07:35:57;;;;;;;12.67;6.20;;;;;;;-2.62;84.92;102768.78;5116049;28;20032;-83
2023/03/01 07:38:23;;;;;;;11.80;5.30;;;;;;;-2.55;84.80;102775.50;5097388;28;20044;-83
2023/03/01 07:40:48;;;;;;;12.43;5.97;;;;;;;-2.50;83.67;102762.78;5115785;28;20118;-83
2023/03/01 07:43:14;;;;;;;9.90;5.50;;;;;;;-2.42;83.50;102773.00;5097551;28;20027;-84
2023/03/01 07:45:39;;;;;;;10.95;5.78;;;;;;;-2.39;84.23;102770.19;5081184;28;20035;-84
2023/03/01 07:48:05;;;;;;;12.97;5.83;;;;;;;-2.36;82.78;102762.91;5096907;28;20035;-84
2023/03/01 07:50:30;;;;;;;9.57;5.17;;;;;;;-2.26;83.42;102770.38;5097331;28;20440;-83
2023/03/01 07:52:55;;;;;;;11.73;6.13;;;;;;;-2.20;83.26;102768.25;5096765;28;20063;-83
2023/03/01 07:55:21;;;;;;;12.57;5.90;;;;;;;-2.14;82.80;102761.69;5115172;28;20111;-83
2023/03/01 07:57:46;;;;;;;10.67;6.07;;;;;;;-2.06;82.75;102762.16;5079987;28;20031;-83
2023/03/01 08:00:12;;;;;;;11.43;6.10;;;;;;;-1.98;82.05;102767.03;5080608;28;20116;-84
2023/03/01 08:02:38;;;;;;;11.50;5.90;;;;;;;-1.96;82.63;102760.69;5098368;28;20070;-84
2023/03/01 08:05:04;;;;;;;15.27;6.20;;;;;;;-1.88;82.39;102765.56;5097771;28;20128;-83
2023/03/01 08:07:33;;;;;;;13.23;6.25;;;;;;;-1.80;82.30;102760.69;5096707;28;20031;-84
2023/03/01 08:09:58;;;;;;;10.50;5.80;;;;;;;-1.71;82.49;102769.06;5097180;28;20035;-83
2023/03/01 08:12:24;;;;;;;9.93;6.00;;;;;;;-1.62;82.11;102761.44;5097253;28;20043;-83
2023/03/01 08:14:52;;;;;;;11.73;5.67;;;;;;;-1.50;81.94;102769.66;5079952;28;20028;-84
2023/03/01 08:17:18;;;;;;;11.07;6.30;;;;;;;-1.42;81.09;102767.38;5096729;28;20140;-84
2023/03/01 08:19:43;;;;;;;11.52;6.15;;;;;;;-1.35;81.36;102763.44;5096647;28;20064;-84
2023/03/01 08:22:08;;;;;;;11.15;6.03;;;;;;;-1.28;81.13;102767.44;5079646;28;20036;-83
2023/03/01 08:24:34;;;;;;;11.90;5.73;;;;;;;-1.17;80.84;102780.13;5096893;28;20024;-84
2023/03/01 08:26:59;;;;;;;10.90;6.17;;;;;;;-1.06;80.36;102772.34;5096997;28;20032;-83
2023/03/01 08:29:25;;;;;;;11.57;5.87;;;;;;;-1.02;80.61;102759.69;5115140;28;20077;-84
2023/03/01 08:31:50;;;;;;;13.02;5.75;;;;;;;-0.94;79.96;102761.91;5096053;28;20076;-84
2023/03/01 08:34:17;;;;;;;10.10;5.68;;;;;;;-0.88;78.87;102761.53;5096747;28;20078;-83
2023/03/01 08:36:45;;;;;;;10.48;6.55;;;;;;;-0.79;79.45;102760.13;5096518;28;20058;-83
2023/03/01 08:39:14;;;;;;;9.68;5.95;;;;;;;-0.73;79.22;102755.25;5115461;28;20426;-83
2023/03/01 08:41:40;;;;;;;12.15;6.25;;;;;;;-0.68;78.20;102751.47;5096593;28;20027;-84
2023/03/01 08:44:06;;;;;;;12.77;6.30;;;;;;;-0.57;79.31;102755.16;5096613;28;20467;-84
2023/03/01 08:46:36;;;;;;;12.88;6.45;;;;;;;-0.50;78.36;102754.78;5096566;28;20031;-84
2023/03/01 08:49:12;;;;;;;11.80;5.82;;;;;;;-0.46;77.86;102738.50;5114408;28;20031;-84
2023/03/01 08:51:37;;;;;;;11.60;5.83;;;;;;;-0.32;77.48;102731.44;5096288;28;20049;-84
2023/03/01 08:54:10;;;;;;;11.18;6.10;;;;;;;-0.23;77.15;102729.03;5114770;28;20039;-84
2023/03/01 08:56:36;;;;;;;9.07;5.95;;;;;;;-0.15;76.72;102741.88;5116007;28;20023;-84
2023/03/01 08:59:04;;;;;;;12.40;6.20;;;;;;;-0.10;76.26;102734.44;5116571;27;20374;-84
2023/03/01 09:01:30;;;;;;;9.45;5.82;;;;;;;-0.04;76.25;102736.72;5134409;27;20582;-84
2023/03/01 09:03:55;;;;;;;12.27;6.10;;;;;;;0.09;75.38;102736.78;5134662;27;20115;-85
2023/03/01 09:06:21;;;;;;;11.63;6.20;;;;;;;0.18;75.56;102738.00;5116282;27;20462;-83
2023/03/01 09:08:51;;;;;;;8.13;5.70;;;;;;;0.26;74.91;102729.47;5134798;27;20027;-84
2023/03/01 09:11:21;;;;;;;8.45;5.30;;;;;;;0.36;73.61;102729.72;5116365;27;20038;-84
2023/03/01 09:13:47;;;;;;;10.85;6.00;;;;;;;0.40;74.06;102721.41;5134752;27;20023;-84
2023/03/01 09:16:17;;;;;;;8.57;5.20;;;;;;;0.51;73.67;102724.19;5115839;27;20140;-84
2023/03/01 09:18:43;;;;;;;10.03;5.23;;;;;;;0.60;72.49;102712.03;5115984;28;20031;-84
2023/03/01 09:21:10;;;;;;;9.98;5.60;;;;;;;0.74;72.24;102713.78;5134742;27;20015;-84
2023/03/01 09:23:38;;;;;;;9.93;4.80;;;;;;;0.81;71.49;102703.50;5134392;27;20038;-84
2023/03/01 09:26:08;;;;;;;9.65;4.90;;;;;;;0.91;70.55;102699.25;5134626;27;20106;-84
2023/03/01 09:28:35;;;;;;;11.32;5.10;;;;;;;0.98;70.01;102711.22;5115565;28;20023;-84
2023/03/01 09:31:04;;;;;;;7.80;4.60;;;;;;;1.05;69.29;102709.84;5134540;27;20028;-84
2023/03/01 09:33:33;;;;;;;10.50;4.90;;;;;;;1.15;68.77;102706.50;5115694;27;20118;-84
2023/03/01 09:36:03;;;;;;;8.43;5.18;;;;;;;1.27;68.82;102697.63;5134547;27;20038;-84
2023/03/01 09:38:28;;;;;;;9.80;5.00;;;;;;;1.33;67.48;102697.19;5134954;28;20543;-84
2023/03/01 09:40:54;;;;;;;14.07;5.50;;;;;;;1.40;66.46;102700.28;5115981;28;20027;-84
2023/03/01 09:43:31;;;;;;;14.27;5.17;;;;;;;1.47;66.72;102701.53;5116179;28;20073;-84
2023/03/01 09:46:03;;;;;;;14.52;5.35;;;;;;;1.53;66.36;102695.75;5116179;28;20304;-84
2023/03/01 09:48:37;;;;;;;9.90;4.85;;;;;;;1.60;66.77;102685.47;5133479;28;20118;-84
2023/03/01 09:51:12;;;;;;;8.75;5.22;;;;;;;1.68;66.72;102684.91;5134319;28;20023;-83
2023/03/01 09:53:38;;;;;;;8.23;5.35;;;;;;;1.72;66.07;102681.91;5116109;28;20031;-83
2023/03/01 09:56:55;;;;;;;10.63;5.17;;;;;;;1.82;65.72;102682.09;5133997;28;20072;-84
2023/03/01 09:59:37;;;;;;;8.75;4.68;;;;;;;1.93;64.68;102673.25;5088326;28;20035;-84
2023/03/01 10:02:30;;;;;;;7.50;4.70;;;;;;;2.02;63.85;102675.28;5134231;28;20031;-83
2023/03/01 10:05:13;;;;;;;9.85;5.07;;;;;;;2.10;64.66;102664.81;5134290;28;20122;-83
2023/03/01 10:07:58;;;;;;;11.30;5.25;;;;;;;2.22;63.72;102662.19;5116873;27;20092;-83
2023/03/01 10:10:46;;;;;;;10.95;5.03;;;;;;;2.37;62.86;102650.31;5138467;27;20015;-83
2023/03/01 10:13:22;;;;;;;9.32;4.88;;;;;;;2.45;60.66;102647.91;5138122;27;20485;-84
2023/03/01 10:15:57;;;;;;;8.50;4.90;;;;;;;2.55;59.99;102650.72;5119777;27;20118;-84
2023/03/01 10:18:29;;;;;;;14.00;4.82;;;;;;;2.65;59.45;102640.16;5137929;27;20452;-84
2023/03/01 10:21:02;;;;;;;13.25;4.65;;;;;;;2.77;59.10;102630.28;5119389;27;20471;-84
2023/03/01 10:23:33;;;;;;;10.43;4.70;;;;;;;2.86;58.42;102634.91;5138247;27;20065;-84
2023/03/01 10:26:03;;;;;;;7.15;4.50;;;;;;;2.94;58.32;102632.50;5120469;27;20031;-84
2023/03/01 10:28:54;;;;;;;8.70;4.70;;;;;;;3.01;58.87;102630.16;5137922;27;20032;-84
2023/03/01 10:31:27;;;;;;;12.52;4.93;;;;;;;3.07;58.95;102624.34;5118955;27;20035;-84
2023/03/01 10:33:55;;;;;;;7.15;4.80;;;;;;;3.16;57.71;102622.75;5118638;27;20061;-84
2023/03/01 10:36:21;;;;;;;7.30;4.70;;;;;;;3.21;57.55;102619.69;5119213;27;20139;-84
2023/03/01 10:39:00;;;;;;;7.95;4.80;;;;;;;3.32;57.43;102623.22;5111196;27;20144;-84
2023/03/01 10:41:27;;;;;;;10.48;4.55;;;;;;;3.39;56.53;102610.16;5127831;27;20032;-84
2023/03/01 10:43:55;;;;;;;7.40;4.70;;;;;;;3.46;56.45;102615.88;5110636;27;20037;-84
2023/03/01 10:46:25;;;;;;;9.13;4.70;;;;;;;3.60;56.79;102612.06;5118950;27;20046;-84
2023/03/01 10:49:13;;;;;;;8.07;4.72;;;;;;;3.71;56.92;102616.56;5136034;27;20031;-84
2023/03/01 10:51:44;;;;;;;6.60;4.55;;;;;;;3.85;55.27;102610.88;5116978;28;20019;-83
2023/03/01 10:54:19;;;;;;;8.75;5.28;;;;;;;3.98;55.63;102614.25;5116817;28;20028;-83
2023/03/01 10:56:53;;;;;;;11.02;4.80;;;;;;;4.13;53.08;102597.81;5116936;28;20042;-84
2023/03/01 10:59:31;;;;;;;7.22;4.70;;;;;;;4.25;53.69;102603.97;5098357;28;20028;-84
2023/03/01 11:02:04;;;;;;;10.35;5.10;;;;;;;4.39;53.04;102606.34;5132907;27;20038;-84
2023/03/01 11:04:32;;;;;;;10.32;4.75;;;;;;;4.55;52.11;102603.19;5137115;27;20027;-84
2023/03/01 11:07:00;;;;;;;7.75;4.78;;;;;;;4.77;51.41;102612.94;5118375;27;20394;-84
2023/03/01 11:09:29;;;;;;;9.32;4.60;;;;;;;4.96;50.27;102604.13;5137787;27;20026;-83
2023/03/01 11:11:56;;;;;;;6.75;4.22;;;;;;;5.15;50.50;102592.53;5102785;27;20030;-84
2023/03/01 11:14:24;;;;;;;8.13;4.85;;;;;;;5.39;49.40;102599.44;5137086;27;20034;-84
2023/03/01 11:17:05;;;;;;;8.70;5.13;;;;;;;5.59;50.09;102601.16;5118800;27;20510;-84
2023/03/01 11:19:31;;;;;;;9.57;5.55;;;;;;;5.87;49.23;102600.47;5136344;27;20163;-84
2023/03/01 11:22:04;;;;;;;8.18;4.63;;;;;;;6.18;47.67;102592.28;5101443;27;20023;-84
2023/03/01 11:24:46;;;;;;;8.55;5.18;;;;;;;7.86;48.02;102592.22;5118493;27;20031;-83
2023/03/01 11:27:27;;;;;;;7.25;5.10;;;;;;;11.77;42.98;102588.69;5118296;27;20102;-83
2023/03/01 11:30:14;;;;;;;8.20;5.03;;;;;;;14.73;34.76;102578.53;5117913;27;20035;-84
2023/03/01 11:32:45;;;;;;;8.40;4.72;;;;;;;17.09;28.66;102570.41;5118433;27;20038;-84
2023/03/01 11:35:19;;;;;;;7.40;4.93;;;;;;;18.92;28.12;102578.72;5115304;27;20053;-84
2023/03/01 11:37:57;;;;;;;8.60;4.95;;;;;;;20.93;27.13;102568.16;5136586;27;20030;-84